Overview Statistics Trail Chart Weather Telemetry Raw packets
 

This is the latest recevied weather packets stored in our database for station/object SV6GMP-10. If no packets are shown the sender has not sent any weather packets the latest 10 day(s).

<< 2 3 4 5 6 7 8 >>
Time Temp. Humidity Pressure Rain* Wind** Luminosity Snow
1788517100 32.78° C 42% 1015 hPa - - - -
1788516200 33.33° C 38% 1015.1 hPa - - - -
1788515300 33.89° C 32% 1015.1 hPa - - - -
1788514400 33.33° C 35% 1015.1 hPa - - - -
1788513500 32.78° C 36% 1015.2 hPa - - - -
1788512599 32.78° C 37% 1015.4 hPa - - - -
1788511699 32.22° C 39% 1015.3 hPa - - - -
1788510799 32.22° C 39% 1015.4 hPa - - - -
1788509899 31.67° C 40% 1015.5 hPa - - - -
1788508999 31.11° C 42% 1015.5 hPa - - - -
1788508099 30.56° C 43% 1015.5 hPa - - - -
1788507199 30.56° C 43% 1015.3 hPa - - - -
1788506299 30° C 45% 1015.3 hPa - - - -
1788505399 30.56° C 45% 1015.1 hPa - - - -
1788504499 29.44° C 46% 1014.8 hPa - - - -
1788503599 30° C 48% 1014.8 hPa - - - -
1788502699 29.44° C 50% 1014.7 hPa - - - -
1788501799 29.44° C 51% 1014.7 hPa - - - -
1788500899 29.44° C 49% 1014.8 hPa - - - -
1788499999 29.44° C 48% 1014.6 hPa - - - -
1788499098 29.44° C 47% 1014.5 hPa - - - -
1788498198 29.44° C 48% 1014.6 hPa - - - -
1788497298 29.44° C 47% 1014.5 hPa - - - -
1788496398 29.44° C 49% 1014.4 hPa - - - -
1788495498 29.44° C 48% 1014.2 hPa - - - -

* Rain since midnight (hover to see other rain measurements)
** Current wind speed in m/s (hover to see current wind gust speed)